Kalaupapa, HI

8:23 AM HST on January 23, 2017 (GMT -1000)
Molokai | | Change Station

Elev 453 ft 21.15 °N, 157.10 °W | Updated 29 minutes ago

Clear
Clear
68 °F
Feels Like 68 °F
N
6
Wind Variable Wind from East

Today
High -- | Low -- °F
--% Chance of Precip.
Yesterday
High -- | Low -- °F
Precip. -- in
Pressure 30.19 in
Visibility 10.0 miles
Clouds Clear
Dew Point 61 °F
Humidity 78%
Rainfall 0.00 in
Snow Depth Not available.
7:07 AM 6:12 PM
Waning Crescent, 17% visible
METAR PHMK 231754Z 10005KT 10SM CLR 20/16 A3018 RMK AO2 SLP222 T02000161 10206 20150 53013
Pressure 30.19 in
Visibility 10.0 miles
Clouds Clear
Dew Point 61 °F
Humidity 78%
Rainfall 0.00 in
Snow Depth Not available.
7:07 AM 6:12 PM
Waning Crescent, 17% visible
METAR PHMK 231754Z 10005KT 10SM CLR 20/16 A3018 RMK AO2 SLP222 T02000161 10206 20150 53013

Get Your Daily Forecast Email!

Thanks for signing up!

Be on the lookout for a verification email in your inbox.

You'll start receiving the daily forecast at 8 AM.

×

10-Day Weather Forecast

Almanac

Astronomy

Jan. 23, 2017 Rise Set
Actual Time
Civil Twilight
Nautical Twilight
Astronomical Twilight
Moon
Length of Visible Light
Length of Day
Tomorrow will be .
, % of the Moon is Illuminated

Today's Extremes

State Highs State Lows

Community

WunderPhotos

Upload Photos

1,962,540 photos uploaded!

WunderBlog® & News

Nearby

Air Quality

  Air Quality AQ Index Pollutant
Not available.

Snow Depth

Station Depth Elevation

Earthquake Activity

City Distance Mag. Time & Date
Minimum magnitude displayed is 2.5.

Coastal Water Temperatures

Place Temperature

Stations

Nearby Weather Stations

Station Location Temp. Windchill Dew Point Humidity Wind Precip. Elev Updated Type
                   

Watches & Warnings

High Surf Advisory
Issued: 3:36 AM HST Jan. 23, 2017 – National Weather Service

... High surf advisory remains in effect until 6 PM HST this
evening...

* surf... along east facing shores of Kauai Oahu Molokai Maui and
The Big Island... 6 to 9 feet.

* Timing... through 600 PM HST this evening.

* Impacts... moderate... expect strong breaking waves... shore
break... and strong currents making swimming dangerous.

Precautionary/preparedness actions...

Heed all advice given by ocean safety officials and exercise
caution. Be prepared for water splashing onto coastal roads along
the east facing shores.




Small Craft Advisory
Issued: 3:35 AM HST Jan. 23, 2017 – National Weather Service

... Small Craft Advisory remains in effect until 6 PM HST this
evening...

* winds... east 20 to 25 kt.

* Seas... 10 to 12 ft.

Precautionary/preparedness actions...

A Small Craft Advisory means that wind speeds of 25 to 33 knots
and/or seas 10 feet or greater are expected to produce conditions
hazardous to small craft. Inexperienced mariners... especially
those operating smaller vessels... should avoid navigating in
these conditions.